Time;durP1;ratioP1;P1;durP2;ratioP2;P2;SDS_P1;SDS_P2;PMS_P1;PMS_P2;Temp;Humidity;BMP_temperature;BMP_pressure;BME280_temperature;BME280_humidity;BME280_pressure;Samples;Min_cycle;Max_cycle;Signal;HPM_P1;HPM_P2
2021/12/11 00:02:08;;;;;;;23.77;13.93;;;1.50;99.90;;;;;;5029108;28;20201;-70
2021/12/11 00:04:38;;;;;;;20.37;13.30;;;1.50;99.90;;;;;;5028932;28;20197;-69
2021/12/11 00:07:08;;;;;;;24.60;14.53;;;1.50;99.90;;;;;;5028956;28;20193;-70
2021/12/11 00:09:39;;;;;;;24.10;14.00;;;1.50;99.90;;;;;;5028480;28;20656;-69
2021/12/11 00:12:15;;;;;;;22.43;13.40;;;1.60;99.90;;;;;;5028888;28;20266;-70
2021/12/11 00:14:44;;;;;;;21.97;13.37;;;1.50;99.90;;;;;;5028385;28;20193;-70
2021/12/11 00:17:12;;;;;;;23.07;13.83;;;1.50;99.90;;;;;;5028583;28;20593;-70
2021/12/11 00:19:40;;;;;;;22.43;14.00;;;1.50;99.90;;;;;;5028254;28;20830;-70
2021/12/11 00:22:10;;;;;;;22.23;14.03;;;1.50;99.90;;;;;;5028478;28;20213;-69
2021/12/11 00:24:40;;;;;;;21.67;13.47;;;1.50;99.90;;;;;;5028173;28;20958;-69
2021/12/11 00:27:09;;;;;;;19.77;12.93;;;1.50;99.90;;;;;;5028410;28;20223;-69
2021/12/11 00:29:38;;;;;;;21.73;13.80;;;1.50;99.90;;;;;;5028569;28;20205;-69
2021/12/11 00:32:09;;;;;;;19.70;12.17;;;1.50;99.90;;;;;;5028508;28;20208;-69
2021/12/11 00:34:38;;;;;;;21.27;12.87;;;1.50;99.90;;;;;;5028109;28;20637;-69
2021/12/11 00:37:06;;;;;;;21.13;12.67;;;1.50;99.90;;;;;;5028162;28;20236;-69
2021/12/11 00:39:38;;;;;;;20.50;12.73;;;1.50;99.90;;;;;;5028331;28;20259;-70
2021/12/11 00:42:12;;;;;;;20.37;12.93;;;1.50;99.90;;;;;;5028243;28;20233;-69
2021/12/11 00:44:42;;;;;;;20.60;12.33;;;1.50;99.90;;;;;;5028315;28;20286;-69
2021/12/11 00:47:11;;;;;;;20.00;12.67;;;1.50;99.90;;;;;;5027792;28;20617;-70
2021/12/11 00:49:48;;;;;;;21.90;13.07;;;1.50;99.90;;;;;;5028141;28;20204;-69
2021/12/11 00:52:15;;;;;;;22.53;13.20;;;1.50;99.90;;;;;;5028195;28;20562;-70
2021/12/11 00:54:44;;;;;;;20.83;12.77;;;1.50;99.90;;;;;;5028356;28;20219;-69
2021/12/11 00:57:14;;;;;;;18.67;12.47;;;1.50;99.90;;;;;;5028110;28;20241;-69
2021/12/11 00:59:40;;;;;;;20.57;12.70;;;1.50;99.90;;;;;;5028015;28;20225;-69
2021/12/11 01:02:08;;;;;;;20.43;13.20;;;1.50;99.90;;;;;;5028378;28;20366;-69
2021/12/11 01:04:41;;;;;;;23.20;13.40;;;1.50;99.90;;;;;;5028014;28;20213;-69
2021/12/11 01:07:16;;;;;;;22.10;13.40;;;1.50;99.90;;;;;;5028095;28;20232;-69
2021/12/11 01:09:48;;;;;;;23.33;13.17;;;1.50;99.90;;;;;;5027729;28;20228;-70
2021/12/11 01:12:23;;;;;;;23.17;14.00;;;1.50;99.90;;;;;;5028010;28;20228;-69
2021/12/11 01:14:55;;;;;;;22.97;12.90;;;1.50;99.90;;;;;;5027971;28;20201;-69
2021/12/11 01:17:30;;;;;;;21.10;13.50;;;1.50;99.90;;;;;;5027704;28;20280;-69
2021/12/11 01:20:01;;;;;;;21.97;13.60;;;1.50;99.90;;;;;;5027972;28;20200;-69
2021/12/11 01:22:33;;;;;;;19.70;12.70;;;1.50;99.90;;;;;;5027978;28;20250;-69
2021/12/11 01:25:06;;;;;;;22.20;13.43;;;1.50;99.90;;;;;;5027987;28;20205;-70
2021/12/11 01:27:34;;;;;;;23.60;13.23;;;1.50;99.90;;;;;;5031815;28;20227;-69
2021/12/11 01:30:01;;;;;;;22.13;11.93;;;1.50;99.90;;;;;;5031993;28;20255;-69
2021/12/11 01:32:31;;;;;;;22.90;13.10;;;1.50;99.90;;;;;;5031642;28;20561;-69
2021/12/11 01:35:00;;;;;;;22.47;12.97;;;1.50;99.90;;;;;;5031449;28;20263;-69
2021/12/11 01:37:27;;;;;;;21.97;13.87;;;1.50;99.90;;;;;;5030992;28;20792;-69
2021/12/11 01:39:54;;;;;;;20.97;13.47;;;1.50;99.90;;;;;;5031608;28;20651;-69
2021/12/11 01:42:24;;;;;;;22.53;13.83;;;1.50;99.90;;;;;;5031446;28;20286;-69
2021/12/11 01:44:56;;;;;;;21.53;13.27;;;1.50;99.90;;;;;;5031285;28;20259;-69
2021/12/11 01:47:28;;;;;;;23.40;14.10;;;1.50;99.90;;;;;;5031441;28;20193;-69
2021/12/11 01:49:58;;;;;;;21.83;12.90;;;1.40;99.90;;;;;;5031489;28;20205;-69
2021/12/11 01:52:34;;;;;;;22.33;13.63;;;1.40;99.90;;;;;;5031335;28;20263;-69
2021/12/11 01:55:04;;;;;;;20.50;13.00;;;1.40;99.90;;;;;;5031042;28;20663;-69
2021/12/11 01:57:31;;;;;;;21.27;13.80;;;1.40;99.90;;;;;;5030984;28;20298;-69
2021/12/11 02:00:09;;;;;;;22.90;13.70;;;1.40;99.90;;;;;;5031226;28;20233;-70
2021/12/11 02:02:39;;;;;;;20.07;12.47;;;1.40;99.90;;;;;;5031132;28;20197;-69
2021/12/11 02:05:07;;;;;;;19.83;12.90;;;1.40;99.90;;;;;;5030833;28;20235;-69
2021/12/11 02:07:38;;;;;;;20.20;12.17;;;1.40;99.90;;;;;;5031056;28;20205;-69
2021/12/11 02:10:14;;;;;;;18.80;12.70;;;1.40;99.90;;;;;;5031167;28;20259;-70
2021/12/11 02:12:43;;;;;;;17.50;11.77;;;1.40;99.90;;;;;;5030722;28;20693;-70
2021/12/11 02:15:15;;;;;;;18.43;11.57;;;1.40;99.90;;;;;;5030618;28;20832;-69
2021/12/11 02:17:45;;;;;;;18.53;11.83;;;1.40;99.90;;;;;;5030824;28;20585;-69
2021/12/11 02:20:22;;;;;;;18.30;12.27;;;1.40;99.90;;;;;;5030962;28;20192;-69
2021/12/11 02:22:52;;;;;;;19.60;12.83;;;1.40;99.90;;;;;;5030599;28;20247;-69
2021/12/11 02:25:22;;;;;;;18.93;11.83;;;1.40;99.90;;;;;;5031058;28;20662;-70
2021/12/11 02:27:55;;;;;;;18.93;12.63;;;1.40;99.90;;;;;;5030566;28;20201;-70
2021/12/11 02:30:26;;;;;;;17.43;11.13;;;1.30;99.90;;;;;;5030729;28;20197;-69
2021/12/11 02:33:03;;;;;;;16.83;11.33;;;1.30;99.90;;;;;;5030624;28;20529;-69
2021/12/11 02:35:36;;;;;;;18.67;11.77;;;1.30;99.90;;;;;;5030461;28;20208;-69
2021/12/11 02:38:10;;;;;;;18.47;11.80;;;1.20;99.90;;;;;;5030001;28;20247;-69
2021/12/11 02:40:41;;;;;;;17.97;10.60;;;1.30;99.90;;;;;;5030388;28;20224;-70
2021/12/11 02:43:13;;;;;;;14.93;10.03;;;1.30;99.90;;;;;;5030640;28;20205;-69
2021/12/11 02:45:44;;;;;;;15.60;11.20;;;1.30;99.90;;;;;;5030369;28;20247;-70
2021/12/11 02:48:14;;;;;;;17.80;11.43;;;1.30;99.90;;;;;;5030523;28;20685;-70
2021/12/11 02:50:45;;;;;;;17.80;11.67;;;1.30;99.90;;;;;;5030229;28;20217;-69
2021/12/11 02:53:16;;;;;;;17.63;11.30;;;1.30;99.90;;;;;;5030056;28;20236;-69
2021/12/11 02:55:50;;;;;;;18.93;12.03;;;1.30;99.90;;;;;;5030044;28;20197;-69
2021/12/11 02:58:20;;;;;;;18.20;11.97;;;1.30;99.90;;;;;;5030148;28;20274;-70
2021/12/11 03:00:50;;;;;;;19.00;12.03;;;1.20;99.90;;;;;;5029812;28;20845;-69
2021/12/11 03:03:25;;;;;;;19.93;11.70;;;1.30;99.90;;;;;;5030515;28;20193;-69
2021/12/11 03:05:59;;;;;;;18.70;11.63;;;1.10;99.90;;;;;;5029506;28;20549;-69
2021/12/11 03:08:27;;;;;;;21.47;12.40;;;1.10;99.90;;;;;;5029645;28;20720;-69
2021/12/11 03:10:57;;;;;;;22.00;12.43;;;1.10;99.90;;;;;;5029902;28;20208;-69
2021/12/11 03:13:26;;;;;;;17.63;11.57;;;1.20;99.90;;;;;;5029844;28;20262;-69
2021/12/11 03:15:53;;;;;;;19.53;11.80;;;1.20;99.90;;;;;;5029583;28;20283;-69
2021/12/11 03:18:21;;;;;;;18.67;12.20;;;1.20;99.90;;;;;;5029840;28;20241;-69
2021/12/11 03:20:50;;;;;;;18.83;12.03;;;1.20;99.90;;;;;;5029481;28;20250;-69
2021/12/11 03:23:17;;;;;;;19.80;12.20;;;1.20;99.90;;;;;;5029758;28;20266;-70
2021/12/11 03:25:45;;;;;;;22.20;12.90;;;1.20;99.90;;;;;;5029404;28;20262;-69
2021/12/11 03:28:15;;;;;;;20.53;12.60;;;1.20;99.90;;;;;;5029769;28;20296;-69
2021/12/11 03:30:45;;;;;;;20.47;12.63;;;1.20;99.90;;;;;;5029537;28;20266;-70
2021/12/11 03:33:14;;;;;;;22.97;13.53;;;1.30;99.90;;;;;;5029551;28;20718;-70
2021/12/11 03:35:42;;;;;;;21.73;13.03;;;1.30;99.90;;;;;;5029141;28;20212;-70
2021/12/11 03:38:09;;;;;;;24.30;14.23;;;1.30;99.90;;;;;;5029137;28;20237;-69
2021/12/11 03:40:36;;;;;;;23.87;13.37;;;1.30;99.90;;;;;;5028887;28;20819;-69
2021/12/11 03:43:09;;;;;;;22.47;13.13;;;1.30;99.90;;;;;;5029290;28;20279;-69
2021/12/11 03:45:38;;;;;;;22.13;12.23;;;1.20;99.90;;;;;;5029150;28;20193;-69
2021/12/11 03:48:08;;;;;;;21.40;12.10;;;1.10;99.90;;;;;;5028472;28;20205;-69
2021/12/11 03:50:36;;;;;;;21.57;12.60;;;1.10;99.90;;;;;;5028917;28;20247;-69
2021/12/11 03:53:03;;;;;;;23.17;13.50;;;1.20;99.90;;;;;;5029009;28;20241;-70
2021/12/11 03:55:34;;;;;;;24.20;13.70;;;1.10;99.90;;;;;;5029020;28;20212;-69
2021/12/11 03:58:01;;;;;;;22.90;12.60;;;1.10;99.90;;;;;;5028949;28;20627;-69
2021/12/11 04:00:34;;;;;;;24.00;13.20;;;1.10;99.90;;;;;;5028597;28;20315;-69
2021/12/11 04:03:05;;;;;;;22.70;12.30;;;1.10;99.90;;;;;;5029227;28;20251;-69
2021/12/11 04:05:34;;;;;;;18.87;11.77;;;1.00;99.90;;;;;;5028788;28;20201;-69
2021/12/11 04:08:02;;;;;;;21.03;12.00;;;1.00;99.90;;;;;;5028753;28;20630;-69
2021/12/11 04:10:29;;;;;;;21.63;12.57;;;1.00;99.90;;;;;;5028852;28;20255;-69
2021/12/11 04:12:57;;;;;;;23.50;13.10;;;1.00;99.90;;;;;;5028910;28;20205;-69
2021/12/11 04:15:25;;;;;;;24.80;13.30;;;1.10;99.90;;;;;;5028622;28;20225;-70
2021/12/11 04:17:54;;;;;;;25.90;13.63;;;1.10;99.90;;;;;;5028370;28;20319;-69
2021/12/11 04:20:26;;;;;;;27.00;14.30;;;1.10;99.90;;;;;;5028604;28;20215;-69
2021/12/11 04:22:53;;;;;;;24.00;13.20;;;1.10;99.90;;;;;;5028638;28;20201;-69
2021/12/11 04:25:23;;;;;;;26.70;13.43;;;1.10;99.90;;;;;;5028540;28;20231;-70
2021/12/11 04:27:50;;;;;;;26.97;14.50;;;1.10;99.90;;;;;;5028295;28;20235;-69
2021/12/11 04:30:18;;;;;;;21.90;13.23;;;1.20;99.90;;;;;;5028131;28;20251;-69
2021/12/11 04:32:45;;;;;;;19.40;12.47;;;1.10;99.90;;;;;;5028439;28;20204;-69
2021/12/11 04:35:15;;;;;;;24.37;12.37;;;1.10;99.90;;;;;;5028484;28;20204;-69
2021/12/11 04:37:42;;;;;;;21.23;11.83;;;1.00;99.90;;;;;;5028230;28;20290;-69
2021/12/11 04:40:13;;;;;;;21.30;11.50;;;1.00;99.90;;;;;;5028211;28;20283;-70
2021/12/11 04:42:51;;;;;;;20.70;11.63;;;1.00;99.90;;;;;;5028285;28;20242;-70
2021/12/11 04:45:21;;;;;;;22.37;12.43;;;1.00;99.90;;;;;;5028382;28;20212;-69
2021/12/11 04:47:53;;;;;;;20.10;11.57;;;1.10;99.90;;;;;;5027829;28;20224;-69
2021/12/11 04:50:29;;;;;;;23.47;12.47;;;1.10;99.90;;;;;;5027775;28;20656;-69
2021/12/11 04:52:58;;;;;;;24.17;13.27;;;1.00;99.90;;;;;;5027652;28;20937;-69
2021/12/11 04:55:40;;;;;;;25.70;13.33;;;1.00;99.90;;;;;;5028143;28;20258;-70
2021/12/11 04:58:28;;;;;;;27.67;14.80;;;1.10;99.90;;;;;;5028071;28;20220;-69
2021/12/11 05:01:09;;;;;;;29.80;13.87;;;1.10;99.90;;;;;;5033508;28;20832;-69
2021/12/11 05:04:03;;;;;;;29.07;13.97;;;1.10;99.90;;;;;;5034698;28;20207;-69
2021/12/11 05:06:44;;;;;;;26.37;14.00;;;1.10;99.90;;;;;;5034533;28;20193;-69
2021/12/11 05:09:21;;;;;;;27.20;14.63;;;1.20;99.90;;;;;;5034633;28;20204;-69
2021/12/11 05:12:06;;;;;;;27.87;14.20;;;1.20;99.90;;;;;;5034676;28;20286;-69
2021/12/11 05:14:34;;;;;;;28.93;14.03;;;1.20;99.90;;;;;;5034466;28;20280;-69
2021/12/11 05:17:01;;;;;;;30.60;14.30;;;1.20;99.90;;;;;;5034688;28;20251;-70
2021/12/11 05:19:28;;;;;;;27.63;13.97;;;1.20;99.90;;;;;;5034460;28;20644;-69
2021/12/11 05:21:56;;;;;;;29.23;13.70;;;1.20;99.90;;;;;;5034563;28;20208;-70
2021/12/11 05:24:23;;;;;;;23.90;12.67;;;1.20;99.90;;;;;;5034617;28;20212;-69
2021/12/11 05:26:49;;;;;;;27.50;13.80;;;1.20;99.90;;;;;;5034752;28;20251;-70
2021/12/11 05:29:16;;;;;;;23.40;11.80;;;1.20;99.90;;;;;;5034500;28;20615;-69
2021/12/11 05:31:43;;;;;;;26.57;13.87;;;1.20;99.90;;;;;;5034386;28;20250;-70
2021/12/11 05:34:10;;;;;;;26.10;12.97;;;1.20;99.90;;;;;;5034388;28;20212;-70
2021/12/11 05:36:38;;;;;;;27.90;14.10;;;1.20;99.90;;;;;;5034119;28;20286;-69
2021/12/11 05:39:12;;;;;;;28.73;14.03;;;1.20;99.90;;;;;;5034202;28;20236;-70
2021/12/11 05:41:39;;;;;;;66.90;15.33;;;1.20;99.90;;;;;;5034344;28;20201;-69
2021/12/11 05:44:08;;;;;;;30.00;14.37;;;1.10;99.90;;;;;;5034205;28;20679;-69
2021/12/11 05:46:35;;;;;;;29.00;14.30;;;1.00;99.90;;;;;;5034431;28;20262;-69
2021/12/11 05:49:04;;;;;;;28.63;14.00;;;1.00;99.90;;;;;;5034299;28;20215;-69
2021/12/11 05:51:37;;;;;;;33.07;14.40;;;1.00;99.90;;;;;;5034241;28;20213;-70
2021/12/11 05:54:05;;;;;;;29.37;14.00;;;1.00;99.90;;;;;;5033877;28;20248;-69
2021/12/11 05:56:37;;;;;;;26.53;13.27;;;0.90;99.90;;;;;;5034128;28;20209;-70
2021/12/11 05:59:06;;;;;;;29.70;14.33;;;1.00;99.90;;;;;;5034056;28;20236;-69
2021/12/11 06:01:37;;;;;;;25.93;12.83;;;1.00;99.90;;;;;;5033936;28;20208;-69
2021/12/11 06:04:09;;;;;;;30.00;13.03;;;1.00;99.90;;;;;;5034279;28;20251;-69
2021/12/11 06:06:37;;;;;;;34.33;13.83;;;1.00;99.90;;;;;;5034022;28;20224;-69
2021/12/11 06:09:05;;;;;;;26.47;12.87;;;1.00;99.90;;;;;;5034009;28;20216;-69
2021/12/11 06:11:33;;;;;;;29.07;14.30;;;1.00;99.90;;;;;;5031797;28;20219;-69
2021/12/11 06:14:00;;;;;;;29.20;14.23;;;1.00;99.90;;;;;;5031014;28;20204;-70
2021/12/11 06:16:26;;;;;;;28.13;12.87;;;1.00;99.90;;;;;;5031021;28;20224;-69
2021/12/11 06:18:53;;;;;;;65.67;15.17;;;1.00;99.90;;;;;;5030865;28;20233;-69
2021/12/11 06:21:21;;;;;;;29.03;13.27;;;1.00;99.90;;;;;;5030643;28;20611;-70
2021/12/11 06:23:48;;;;;;;27.63;13.83;;;0.90;99.90;;;;;;5030782;28;20613;-69
2021/12/11 06:26:15;;;;;;;34.87;14.90;;;0.90;99.90;;;;;;5030788;28;20239;-70
2021/12/11 06:28:43;;;;;;;31.00;14.47;;;0.90;99.90;;;;;;5030267;28;20663;-70
2021/12/11 06:31:17;;;;;;;28.87;13.63;;;1.00;99.90;;;;;;5030813;28;20213;-69
2021/12/11 06:33:45;;;;;;;27.50;13.07;;;1.00;99.90;;;;;;5030447;28;20284;-70
2021/12/11 06:36:13;;;;;;;27.13;13.13;;;1.00;99.90;;;;;;5029745;28;20205;-69
2021/12/11 06:38:40;;;;;;;25.73;12.83;;;1.00;99.90;;;;;;5030254;28;20267;-69
2021/12/11 06:41:09;;;;;;;33.20;13.70;;;1.00;99.90;;;;;;5030487;28;20278;-69
2021/12/11 06:43:36;;;;;;;49.40;13.83;;;0.90;99.90;;;;;;5030113;28;20216;-70
2021/12/11 06:46:08;;;;;;;30.13;13.67;;;0.80;99.90;;;;;;5030481;28;20211;-69
2021/12/11 06:48:36;;;;;;;29.67;13.27;;;0.80;99.90;;;;;;5029896;28;20228;-70
2021/12/11 06:51:06;;;;;;;26.90;12.77;;;0.70;99.90;;;;;;5030368;28;20208;-69
2021/12/11 06:53:36;;;;;;;28.70;12.57;;;0.80;99.90;;;;;;5029752;28;20241;-69
2021/12/11 06:56:06;;;;;;;23.10;11.83;;;0.90;99.90;;;;;;5029865;28;20208;-70
2021/12/11 06:58:34;;;;;;;22.37;11.07;;;1.00;99.90;;;;;;5029541;28;20760;-70
2021/12/11 07:01:06;;;;;;;23.43;11.57;;;1.00;99.90;;;;;;5030049;28;20239;-69
2021/12/11 07:03:35;;;;;;;44.33;12.33;;;1.10;99.90;;;;;;5029881;28;20197;-69
2021/12/11 07:06:05;;;;;;;27.80;12.30;;;1.00;99.90;;;;;;5030030;28;20205;-70
2021/12/11 07:08:32;;;;;;;22.00;11.13;;;1.00;99.90;;;;;;5029607;28;20209;-69
2021/12/11 07:11:00;;;;;;;23.80;10.30;;;1.00;99.90;;;;;;5029651;28;20671;-69
2021/12/11 07:13:28;;;;;;;27.77;10.03;;;0.90;99.90;;;;;;5029839;28;20209;-69
2021/12/11 07:15:56;;;;;;;44.03;11.10;;;0.90;99.90;;;;;;5029413;28;20602;-69
2021/12/11 07:18:23;;;;;;;16.70;9.57;;;0.80;99.90;;;;;;5029735;28;20626;-69
2021/12/11 07:20:51;;;;;;;19.73;10.67;;;0.80;99.90;;;;;;5029571;28;20220;-69
2021/12/11 07:23:18;;;;;;;25.10;10.80;;;0.90;99.90;;;;;;5028451;28;20254;-69
2021/12/11 07:25:49;;;;;;;21.67;10.37;;;1.00;99.90;;;;;;5029482;28;20320;-70
2021/12/11 07:28:16;;;;;;;20.73;10.23;;;1.00;99.90;;;;;;5029632;28;20209;-70
2021/12/11 07:30:46;;;;;;;25.10;10.40;;;0.90;99.90;;;;;;5029219;28;20339;-69
2021/12/11 07:33:14;;;;;;;20.40;9.13;;;0.70;99.90;;;;;;5029373;28;20201;-69
2021/12/11 07:35:43;;;;;;;16.33;9.20;;;0.50;99.90;;;;;;5029311;28;20213;-69
2021/12/11 07:38:12;;;;;;;15.30;8.30;;;0.50;99.90;;;;;;5028932;28;20831;-69
2021/12/11 07:40:43;;;;;;;15.30;8.47;;;0.40;99.90;;;;;;5029184;28;20224;-69
2021/12/11 07:43:11;;;;;;;16.70;8.27;;;0.30;99.90;;;;;;5029058;28;20663;-70
2021/12/11 07:45:39;;;;;;;15.00;8.17;;;0.30;99.90;;;;;;5029110;28;20209;-69
2021/12/11 07:48:07;;;;;;;13.70;7.67;;;0.40;99.90;;;;;;5029302;28;20203;-70
2021/12/11 07:50:34;;;;;;;16.27;8.23;;;0.30;99.90;;;;;;5028806;28;20717;-69
2021/12/11 07:53:03;;;;;;;12.80;7.50;;;0.30;99.90;;;;;;5028923;28;20262;-69
2021/12/11 07:55:32;;;;;;;22.87;8.97;;;0.30;99.90;;;;;;5028828;28;20697;-69
2021/12/11 07:57:59;;;;;;;25.30;9.53;;;0.30;99.90;;;;;;5028928;28;20233;-69
2021/12/11 08:00:27;;;;;;;13.93;7.97;;;0.30;99.90;;;;;;5029023;28;20212;-69
2021/12/11 08:02:55;;;;;;;33.33;9.30;;;0.30;99.90;;;;;;5029020;28;20204;-70
2021/12/11 08:05:23;;;;;;;12.13;7.83;;;0.10;99.90;;;;;;5028879;28;20208;-69
2021/12/11 08:07:50;;;;;;;12.17;8.00;;;0.20;99.90;;;;;;5028586;28;20262;-69
2021/12/11 08:10:19;;;;;;;16.73;7.87;;;0.30;99.90;;;;;;5028780;28;20209;-69
2021/12/11 08:12:51;;;;;;;9.63;6.50;;;0.30;99.90;;;;;;5028550;28;20209;-69
2021/12/11 08:15:18;;;;;;;15.87;7.33;;;0.40;99.90;;;;;;5028603;28;20298;-70
2021/12/11 08:17:50;;;;;;;16.37;8.20;;;0.40;99.90;;;;;;5028491;28;20205;-69
2021/12/11 08:20:17;;;;;;;12.70;7.67;;;0.40;99.90;;;;;;5028593;28;20267;-69
2021/12/11 08:22:44;;;;;;;13.10;7.70;;;0.30;99.90;;;;;;5028443;28;20205;-69
2021/12/11 08:25:11;;;;;;;14.13;7.60;;;0.10;99.90;;;;;;5028604;28;20321;-69
2021/12/11 08:27:41;;;;;;;14.30;8.83;;;0.10;99.90;;;;;;5028298;28;20262;-70
2021/12/11 08:30:11;;;;;;;12.70;7.80;;;0.20;99.90;;;;;;5028460;28;20235;-69
2021/12/11 08:32:37;;;;;;;17.47;8.03;;;0.10;99.90;;;;;;5028223;28;20211;-69
2021/12/11 08:35:06;;;;;;;14.37;8.50;;;0.10;99.90;;;;;;5028007;28;20258;-69
2021/12/11 08:37:35;;;;;;;13.43;7.97;;;0.00;99.90;;;;;;5027599;28;20282;-69
2021/12/11 08:40:02;;;;;;;13.63;8.23;;;-0.10;99.90;;;;;;5028150;28;20243;-69
2021/12/11 08:42:28;;;;;;;15.90;8.50;;;0.00;99.90;;;;;;5028285;28;20702;-70
2021/12/11 08:45:04;;;;;;;16.53;8.30;;;-0.10;99.90;;;;;;5028046;28;20659;-70
2021/12/11 08:47:34;;;;;;;16.10;8.17;;;-0.10;99.90;;;;;;5028150;28;20199;-69
2021/12/11 08:50:04;;;;;;;17.20;8.67;;;-0.20;99.90;;;;;;5028264;28;20222;-69
2021/12/11 08:52:36;;;;;;;19.13;8.40;;;-0.20;99.90;;;;;;5027735;28;20817;-70
2021/12/11 08:55:07;;;;;;;19.77;8.67;;;-0.10;99.90;;;;;;5028120;28;20211;-70
2021/12/11 08:57:36;;;;;;;18.20;8.83;;;-0.10;99.90;;;;;;5027546;28;20278;-70
2021/12/11 09:00:09;;;;;;;19.20;9.20;;;-0.10;99.90;;;;;;5028108;28;20240;-70
2021/12/11 09:02:43;;;;;;;23.20;9.30;;;-0.20;99.90;;;;;;5028071;28;20203;-69
2021/12/11 09:05:13;;;;;;;17.90;10.63;;;-0.10;99.90;;;;;;5028222;28;20255;-70
2021/12/11 09:07:44;;;;;;;18.17;9.20;;;0.00;99.90;;;;;;5027960;28;20364;-70
2021/12/11 09:10:17;;;;;;;17.23;9.23;;;0.00;99.90;;;;;;5028216;28;20204;-70
2021/12/11 09:12:54;;;;;;;16.00;9.07;;;0.00;99.90;;;;;;5027935;28;20250;-70
2021/12/11 09:15:26;;;;;;;17.13;9.80;;;0.00;99.90;;;;;;5028052;28;20235;-70
2021/12/11 09:17:58;;;;;;;18.17;9.53;;;0.10;99.90;;;;;;5028163;28;20204;-70
2021/12/11 09:20:32;;;;;;;25.97;10.70;;;0.10;99.90;;;;;;5028038;28;20225;-70
2021/12/11 09:23:04;;;;;;;18.60;9.33;;;0.10;99.90;;;;;;5027994;28;20205;-70
2021/12/11 09:25:35;;;;;;;19.10;9.70;;;0.10;99.90;;;;;;5027939;28;20193;-70
2021/12/11 09:28:06;;;;;;;16.03;9.47;;;0.20;99.90;;;;;;5027789;28;20624;-70
2021/12/11 09:30:38;;;;;;;21.63;9.33;;;0.10;99.90;;;;;;5027889;28;20255;-70
2021/12/11 09:33:10;;;;;;;14.70;8.17;;;0.00;99.90;;;;;;5027564;28;20749;-70
2021/12/11 09:35:42;;;;;;;14.77;8.50;;;0.10;99.90;;;;;;5027699;28;20322;-70
2021/12/11 09:38:13;;;;;;;16.83;9.40;;;0.10;99.90;;;;;;5027274;28;20644;-70
2021/12/11 09:40:52;;;;;;;15.33;9.10;;;0.30;99.90;;;;;;5027552;28;20286;-70
2021/12/11 09:43:40;;;;;;;16.47;9.73;;;0.30;99.90;;;;;;5027550;28;20726;-70
2021/12/11 09:46:10;;;;;;;12.07;7.50;;;0.30;99.90;;;;;;5027770;28;20193;-70
2021/12/11 09:48:40;;;;;;;11.70;7.83;;;0.40;99.90;;;;;;5031432;28;20197;-69
2021/12/11 09:51:12;;;;;;;13.37;8.07;;;0.50;99.90;;;;;;5031311;28;20224;-70
2021/12/11 09:53:42;;;;;;;13.70;8.27;;;0.50;99.90;;;;;;5030881;28;20244;-70
2021/12/11 09:56:14;;;;;;;13.80;9.27;;;0.50;99.90;;;;;;5031441;28;20189;-70
2021/12/11 09:58:43;;;;;;;14.13;9.33;;;0.60;99.90;;;;;;5031067;28;20232;-70
2021/12/11 10:01:13;;;;;;;18.40;10.00;;;0.60;99.90;;;;;;5031390;28;20212;-70
2021/12/11 10:03:50;;;;;;;15.93;9.10;;;0.50;99.90;;;;;;5031273;28;20205;-70
2021/12/11 10:06:41;;;;;;;12.97;8.80;;;0.50;99.90;;;;;;5030710;28;20193;-70
2021/12/11 10:09:19;;;;;;;12.33;8.17;;;0.30;99.90;;;;;;5030853;28;20660;-70
2021/12/11 10:11:54;;;;;;;12.97;8.00;;;0.10;99.90;;;;;;5030912;28;20203;-70
2021/12/11 10:14:25;;;;;;;13.37;8.00;;;0.10;99.90;;;;;;5030860;28;20843;-70
2021/12/11 10:16:58;;;;;;;12.03;8.27;;;0.20;99.90;;;;;;5030904;28;20253;-70
2021/12/11 10:19:29;;;;;;;17.97;11.23;;;0.10;99.90;;;;;;5030987;28;20228;-70
2021/12/11 10:22:04;;;;;;;12.07;8.23;;;0.10;99.90;;;;;;5030791;28;20581;-70
2021/12/11 10:24:32;;;;;;;13.00;8.40;;;0.10;99.90;;;;;;5030484;28;20669;-70
2021/12/11 10:27:01;;;;;;;11.90;8.23;;;0.20;99.90;;;;;;5030890;28;20261;-70
2021/12/11 10:29:29;;;;;;;12.67;8.57;;;0.30;99.90;;;;;;5030837;28;20208;-70
2021/12/11 10:31:59;;;;;;;14.23;8.97;;;0.30;99.90;;;;;;5030642;28;20723;-70
2021/12/11 10:34:29;;;;;;;22.03;9.50;;;0.30;99.90;;;;;;5030801;28;20235;-70
2021/12/11 10:37:00;;;;;;;15.50;9.60;;;0.20;99.90;;;;;;5030441;28;20294;-70
2021/12/11 10:39:27;;;;;;;14.20;9.37;;;0.10;99.90;;;;;;5030342;28;20642;-70
2021/12/11 10:41:54;;;;;;;12.97;9.27;;;0.20;99.90;;;;;;5030436;28;20208;-70
2021/12/11 10:44:24;;;;;;;18.67;9.77;;;0.20;99.90;;;;;;5030402;28;20265;-70
2021/12/11 10:46:58;;;;;;;12.37;8.77;;;0.20;99.90;;;;;;5030197;28;20201;-70
2021/12/11 10:49:26;;;;;;;14.70;9.23;;;0.10;99.90;;;;;;5030168;28;20200;-70
2021/12/11 10:51:56;;;;;;;16.77;9.37;;;0.10;99.90;;;;;;5030275;28;20215;-70
2021/12/11 10:54:24;;;;;;;15.70;10.03;;;0.10;99.90;;;;;;5029868;28;20243;-70
2021/12/11 10:56:51;;;;;;;17.57;10.70;;;0.10;99.90;;;;;;5029787;28;20274;-70
2021/12/11 10:59:22;;;;;;;15.40;10.23;;;0.10;99.90;;;;;;5029953;28;20698;-70
2021/12/11 11:01:54;;;;;;;16.60;10.70;;;0.10;99.90;;;;;;5030151;28;20202;-70
2021/12/11 11:04:24;;;;;;;15.50;10.53;;;0.30;99.90;;;;;;5030148;28;20250;-69
2021/12/11 11:06:52;;;;;;;21.93;10.83;;;0.30;99.90;;;;;;5029806;28;20216;-70
2021/12/11 11:09:20;;;;;;;16.33;10.87;;;0.30;99.90;;;;;;5029924;28;20274;-70
2021/12/11 11:11:50;;;;;;;13.83;9.13;;;0.30;99.90;;;;;;5029642;28;20671;-70
2021/12/11 11:14:18;;;;;;;14.30;9.60;;;0.30;99.90;;;;;;5029843;28;20232;-70
2021/12/11 11:16:51;;;;;;;15.80;10.63;;;0.30;99.90;;;;;;5029401;28;20219;-70
2021/12/11 11:19:20;;;;;;;17.43;10.47;;;0.30;99.90;;;;;;5029736;28;20236;-70
2021/12/11 11:21:53;;;;;;;16.50;9.97;;;0.30;99.90;;;;;;5029662;28;20204;-70
2021/12/11 11:24:19;;;;;;;18.37;11.93;;;0.30;99.90;;;;;;5029712;28;20224;-70
2021/12/11 11:26:48;;;;;;;16.63;10.67;;;0.30;99.90;;;;;;5029576;28;20223;-70
2021/12/11 11:29:18;;;;;;;17.77;10.77;;;0.40;99.90;;;;;;5029723;28;20204;-70
2021/12/11 11:31:50;;;;;;;18.07;10.57;;;0.40;99.90;;;;;;5029527;28;20197;-70
2021/12/11 11:34:21;;;;;;;16.53;10.47;;;0.50;99.90;;;;;;5029438;28;20193;-70
2021/12/11 11:36:50;;;;;;;16.50;11.00;;;0.60;99.90;;;;;;5029478;28;20227;-70
2021/12/11 11:39:21;;;;;;;13.90;9.73;;;0.50;99.90;;;;;;5029000;28;20591;-70
2021/12/11 11:41:53;;;;;;;16.50;10.60;;;0.60;99.90;;;;;;5029276;28;20201;-70
2021/12/11 11:44:24;;;;;;;19.60;10.93;;;0.60;99.90;;;;;;5029310;28;20193;-70
2021/12/11 11:46:55;;;;;;;17.43;11.87;;;0.50;99.90;;;;;;5029078;28;20193;-70
2021/12/11 11:49:23;;;;;;;19.03;11.23;;;0.40;99.90;;;;;;5029500;28;20197;-70
2021/12/11 11:51:52;;;;;;;16.00;10.50;;;0.50;99.90;;;;;;5029123;28;20259;-70
2021/12/11 11:54:22;;;;;;;18.57;11.50;;;0.50;99.90;;;;;;5028882;28;20244;-70
2021/12/11 11:56:54;;;;;;;13.43;9.77;;;0.50;99.90;;;;;;5028724;28;20227;-71
2021/12/11 11:59:21;;;;;;;15.47;9.97;;;0.60;99.90;;;;;;5029099;28;20192;-70
2021/12/11 12:01:51;;;;;;;13.97;9.63;;;0.60;99.90;;;;;;5028845;28;20212;-70
2021/12/11 12:04:20;;;;;;;16.03;10.13;;;0.60;99.90;;;;;;5028958;28;20212;-70
2021/12/11 12:06:54;;;;;;;16.77;10.57;;;0.60;99.90;;;;;;5028501;28;20212;-70
2021/12/11 12:09:24;;;;;;;20.77;10.53;;;0.50;99.90;;;;;;5028439;28;20300;-70
2021/12/11 12:11:53;;;;;;;17.47;11.40;;;0.50;99.90;;;;;;5028395;28;20267;-70
2021/12/11 12:14:24;;;;;;;13.73;9.30;;;0.40;99.90;;;;;;5028572;28;20232;-70
2021/12/11 12:16:52;;;;;;;13.80;10.20;;;0.40;99.90;;;;;;5028255;28;20197;-70
2021/12/11 12:19:22;;;;;;;18.00;11.53;;;0.50;99.90;;;;;;5028697;28;20205;-70
2021/12/11 12:21:54;;;;;;;16.80;10.30;;;0.50;99.90;;;;;;5028414;28;20270;-70
2021/12/11 12:24:22;;;;;;;17.30;10.73;;;0.50;99.90;;;;;;5028847;28;20196;-71
2021/12/11 12:26:50;;;;;;;16.00;10.10;;;0.60;99.90;;;;;;5028599;28;20262;-70
2021/12/11 12:29:18;;;;;;;14.33;9.83;;;0.60;99.90;;;;;;5028525;28;20244;-70
2021/12/11 12:31:48;;;;;;;16.57;10.37;;;0.50;99.90;;;;;;5028359;28;20277;-70
2021/12/11 12:34:16;;;;;;;18.17;10.63;;;0.60;99.90;;;;;;5028561;28;20196;-70
2021/12/11 12:36:45;;;;;;;16.00;10.30;;;0.50;99.90;;;;;;5028334;28;20258;-70
2021/12/11 12:39:17;;;;;;;15.00;9.97;;;0.50;99.90;;;;;;5028091;28;20733;-70
2021/12/11 12:41:53;;;;;;;14.40;9.47;;;0.50;99.90;;;;;;5028170;28;20232;-70
2021/12/11 12:44:22;;;;;;;15.80;11.47;;;0.60;99.90;;;;;;5028123;28;20199;-71
2021/12/11 12:46:55;;;;;;;16.80;10.73;;;0.60;99.90;;;;;;5028306;28;20680;-70
2021/12/11 12:49:23;;;;;;;17.47;10.17;;;0.60;99.90;;;;;;5028225;28;20211;-70
2021/12/11 12:51:50;;;;;;;16.93;10.73;;;0.60;99.90;;;;;;5028007;28;20220;-70
2021/12/11 12:54:20;;;;;;;15.33;10.40;;;0.60;99.90;;;;;;5027939;28;20241;-70